sensor_id;sensor_type;location;lat;lon;timestamp;P1;durP1;ratioP1;P2;durP2;ratioP2
1054;SDS011;516;51.482;7.120;2023-04-25T00:01:09;13.03;;;7.97;;
1054;SDS011;516;51.482;7.120;2023-04-25T00:06:59;10.50;;;6.30;;
1054;SDS011;516;51.482;7.120;2023-04-25T00:12:50;20.57;;;8.20;;
1054;SDS011;516;51.482;7.120;2023-04-25T00:18:38;11.60;;;6.93;;
1054;SDS011;516;51.482;7.120;2023-04-25T00:24:26;7.83;;;7.13;;
1054;SDS011;516;51.482;7.120;2023-04-25T00:30:14;10.10;;;7.70;;
1054;SDS011;516;51.482;7.120;2023-04-25T00:36:02;9.57;;;7.50;;
1054;SDS011;516;51.482;7.120;2023-04-25T00:41:50;17.60;;;7.73;;
1054;SDS011;516;51.482;7.120;2023-04-25T00:47:41;11.00;;;7.80;;
1054;SDS011;516;51.482;7.120;2023-04-25T01:03:16;10.30;;;7.67;;
1054;SDS011;516;51.482;7.120;2023-04-25T01:09:07;12.03;;;7.20;;
1054;SDS011;516;51.482;7.120;2023-04-25T01:14:55;10.80;;;9.07;;
1054;SDS011;516;51.482;7.120;2023-04-25T01:20:42;13.47;;;7.50;;
1054;SDS011;516;51.482;7.120;2023-04-25T01:26:30;12.07;;;7.00;;
1054;SDS011;516;51.482;7.120;2023-04-25T01:32:19;17.60;;;8.50;;
1054;SDS011;516;51.482;7.120;2023-04-25T01:38:06;12.57;;;9.00;;
1054;SDS011;516;51.482;7.120;2023-04-25T01:43:54;19.83;;;9.93;;
1054;SDS011;516;51.482;7.120;2023-04-25T01:49:42;11.87;;;9.00;;
1054;SDS011;516;51.482;7.120;2023-04-25T01:55:39;9.30;;;7.40;;
1054;SDS011;516;51.482;7.120;2023-04-25T02:01:27;13.53;;;8.97;;
1054;SDS011;516;51.482;7.120;2023-04-25T02:07:14;15.27;;;7.47;;
1054;SDS011;516;51.482;7.120;2023-04-25T02:13:02;12.73;;;8.93;;
1054;SDS011;516;51.482;7.120;2023-04-25T02:18:51;8.50;;;6.57;;
1054;SDS011;516;51.482;7.120;2023-04-25T02:24:39;13.50;;;8.60;;
1054;SDS011;516;51.482;7.120;2023-04-25T02:30:26;11.30;;;6.70;;
1054;SDS011;516;51.482;7.120;2023-04-25T02:36:14;9.50;;;7.60;;
1054;SDS011;516;51.482;7.120;2023-04-25T02:42:01;14.40;;;8.17;;
1054;SDS011;516;51.482;7.120;2023-04-25T02:47:49;16.77;;;7.80;;
1054;SDS011;516;51.482;7.120;2023-04-25T03:03:14;11.07;;;7.90;;
1054;SDS011;516;51.482;7.120;2023-04-25T03:09:04;11.63;;;6.27;;
1054;SDS011;516;51.482;7.120;2023-04-25T03:14:52;14.80;;;8.07;;
1054;SDS011;516;51.482;7.120;2023-04-25T03:20:40;15.83;;;7.27;;
1054;SDS011;516;51.482;7.120;2023-04-25T03:26:28;15.70;;;7.87;;
1054;SDS011;516;51.482;7.120;2023-04-25T03:32:16;14.63;;;8.50;;
1054;SDS011;516;51.482;7.120;2023-04-25T03:38:03;13.10;;;8.67;;
1054;SDS011;516;51.482;7.120;2023-04-25T03:43:32;11.80;;;7.47;;
1054;SDS011;516;51.482;7.120;2023-04-25T03:49:20;17.43;;;10.00;;
1054;SDS011;516;51.482;7.120;2023-04-25T03:55:08;14.27;;;7.97;;
1054;SDS011;516;51.482;7.120;2023-04-25T04:00:56;12.20;;;7.83;;
1054;SDS011;516;51.482;7.120;2023-04-25T04:06:43;14.33;;;7.50;;
1054;SDS011;516;51.482;7.120;2023-04-25T04:12:31;14.00;;;7.90;;
1054;SDS011;516;51.482;7.120;2023-04-25T04:18:18;9.43;;;6.83;;
1054;SDS011;516;51.482;7.120;2023-04-25T04:24:06;10.10;;;6.37;;
1054;SDS011;516;51.482;7.120;2023-04-25T04:29:53;7.17;;;5.90;;
1054;SDS011;516;51.482;7.120;2023-04-25T04:35:41;13.73;;;5.60;;
1054;SDS011;516;51.482;7.120;2023-04-25T04:41:30;10.40;;;5.30;;
1054;SDS011;516;51.482;7.120;2023-04-25T04:47:17;9.43;;;4.80;;
1054;SDS011;516;51.482;7.120;2023-04-25T05:03:16;7.97;;;6.20;;
1054;SDS011;516;51.482;7.120;2023-04-25T05:09:03;10.33;;;6.33;;
1054;SDS011;516;51.482;7.120;2023-04-25T05:14:51;11.80;;;6.47;;
1054;SDS011;516;51.482;7.120;2023-04-25T05:20:39;10.70;;;7.33;;
1054;SDS011;516;51.482;7.120;2023-04-25T05:26:26;18.33;;;8.43;;
1054;SDS011;516;51.482;7.120;2023-04-25T05:32:18;17.90;;;10.40;;
1054;SDS011;516;51.482;7.120;2023-04-25T05:38:05;12.53;;;8.93;;
1054;SDS011;516;51.482;7.120;2023-04-25T05:43:53;14.43;;;9.43;;
1054;SDS011;516;51.482;7.120;2023-04-25T05:49:41;17.43;;;8.20;;
1054;SDS011;516;51.482;7.120;2023-04-25T05:55:21;18.70;;;9.70;;
1054;SDS011;516;51.482;7.120;2023-04-25T06:01:09;14.67;;;7.37;;
1054;SDS011;516;51.482;7.120;2023-04-25T06:06:57;26.03;;;8.77;;
1054;SDS011;516;51.482;7.120;2023-04-25T06:12:44;14.93;;;7.17;;
1054;SDS011;516;51.482;7.120;2023-04-25T06:18:31;15.33;;;7.00;;
1054;SDS011;516;51.482;7.120;2023-04-25T06:24:19;15.63;;;8.47;;
1054;SDS011;516;51.482;7.120;2023-04-25T06:30:22;18.73;;;8.30;;
1054;SDS011;516;51.482;7.120;2023-04-25T06:36:12;17.47;;;9.00;;
1054;SDS011;516;51.482;7.120;2023-04-25T06:42:00;15.80;;;8.30;;
1054;SDS011;516;51.482;7.120;2023-04-25T06:47:48;13.67;;;7.40;;
1054;SDS011;516;51.482;7.120;2023-04-25T06:53:50;17.63;;;8.30;;
1054;SDS011;516;51.482;7.120;2023-04-25T06:59:37;12.37;;;6.60;;
1054;SDS011;516;51.482;7.120;2023-04-25T07:05:25;11.40;;;6.80;;
1054;SDS011;516;51.482;7.120;2023-04-25T07:11:12;10.17;;;6.40;;
1054;SDS011;516;51.482;7.120;2023-04-25T07:16:59;7.33;;;4.87;;
1054;SDS011;516;51.482;7.120;2023-04-25T07:22:47;8.30;;;5.00;;
1054;SDS011;516;51.482;7.120;2023-04-25T07:28:17;10.03;;;6.40;;
1054;SDS011;516;51.482;7.120;2023-04-25T07:34:05;7.53;;;5.30;;
1054;SDS011;516;51.482;7.120;2023-04-25T07:39:53;6.07;;;5.47;;
1054;SDS011;516;51.482;7.120;2023-04-25T07:45:42;12.27;;;7.63;;
1054;SDS011;516;51.482;7.120;2023-04-25T07:51:30;8.57;;;6.83;;
1054;SDS011;516;51.482;7.120;2023-04-25T07:57:18;9.80;;;8.90;;
1054;SDS011;516;51.482;7.120;2023-04-25T08:03:09;10.80;;;8.70;;
1054;SDS011;516;51.482;7.120;2023-04-25T08:08:56;10.90;;;10.00;;
1054;SDS011;516;51.482;7.120;2023-04-25T08:14:44;9.53;;;8.40;;
1054;SDS011;516;51.482;7.120;2023-04-25T08:20:32;13.20;;;8.50;;
1054;SDS011;516;51.482;7.120;2023-04-25T08:36:10;9.67;;;8.27;;
1054;SDS011;516;51.482;7.120;2023-04-25T08:41:58;9.67;;;8.40;;
1054;SDS011;516;51.482;7.120;2023-04-25T08:47:47;10.77;;;9.97;;
1054;SDS011;516;51.482;7.120;2023-04-25T08:53:39;12.40;;;10.00;;
1054;SDS011;516;51.482;7.120;2023-04-25T08:59:29;11.50;;;9.53;;
1054;SDS011;516;51.482;7.120;2023-04-25T09:05:20;12.87;;;9.20;;
1054;SDS011;516;51.482;7.120;2023-04-25T09:11:09;10.17;;;9.37;;
1054;SDS011;516;51.482;7.120;2023-04-25T09:17:00;9.90;;;9.20;;
1054;SDS011;516;51.482;7.120;2023-04-25T09:22:49;10.23;;;9.47;;
1054;SDS011;516;51.482;7.120;2023-04-25T09:25:53;10.97;;;10.17;;
1054;SDS011;516;51.482;7.120;2023-04-25T09:28:25;13.03;;;9.83;;
1054;SDS011;516;51.482;7.120;2023-04-25T09:34:14;11.53;;;10.83;;
1054;SDS011;516;51.482;7.120;2023-04-25T09:40:04;12.20;;;10.20;;
1054;SDS011;516;51.482;7.120;2023-04-25T09:45:54;9.80;;;9.07;;
1054;SDS011;516;51.482;7.120;2023-04-25T09:51:58;10.30;;;9.60;;
1054;SDS011;516;51.482;7.120;2023-04-25T09:57:52;9.93;;;9.07;;
1054;SDS011;516;51.482;7.120;2023-04-25T10:04:20;9.37;;;8.87;;
1054;SDS011;516;51.482;7.120;2023-04-25T10:13:51;11.33;;;10.83;;
1054;SDS011;516;51.482;7.120;2023-04-25T10:19:39;12.17;;;11.03;;
1054;SDS011;516;51.482;7.120;2023-04-25T10:25:26;13.87;;;12.63;;
1054;SDS011;516;51.482;7.120;2023-04-25T10:31:15;10.97;;;10.20;;
1054;SDS011;516;51.482;7.120;2023-04-25T10:37:04;11.00;;;10.00;;
1054;SDS011;516;51.482;7.120;2023-04-25T10:42:54;12.43;;;11.07;;
1054;SDS011;516;51.482;7.120;2023-04-25T10:48:47;11.10;;;10.53;;
1054;SDS011;516;51.482;7.120;2023-04-25T10:54:43;12.13;;;11.47;;
1054;SDS011;516;51.482;7.120;2023-04-25T11:00:34;9.50;;;8.70;;
1054;SDS011;516;51.482;7.120;2023-04-25T11:03:15;10.87;;;10.07;;
1054;SDS011;516;51.482;7.120;2023-04-25T11:05:41;10.07;;;9.30;;
1054;SDS011;516;51.482;7.120;2023-04-25T11:11:32;11.10;;;10.40;;
1054;SDS011;516;51.482;7.120;2023-04-25T11:17:24;8.77;;;7.67;;
1054;SDS011;516;51.482;7.120;2023-04-25T11:23:12;9.13;;;7.57;;
1054;SDS011;516;51.482;7.120;2023-04-25T11:29:00;12.27;;;7.97;;
1054;SDS011;516;51.482;7.120;2023-04-25T11:34:49;9.03;;;6.00;;
1054;SDS011;516;51.482;7.120;2023-04-25T11:40:36;10.90;;;5.63;;
1054;SDS011;516;51.482;7.120;2023-04-25T11:46:24;6.57;;;6.07;;
1054;SDS011;516;51.482;7.120;2023-04-25T11:52:12;7.30;;;6.60;;
1054;SDS011;516;51.482;7.120;2023-04-25T11:58:00;9.20;;;8.70;;
1054;SDS011;516;51.482;7.120;2023-04-25T12:03:49;10.50;;;9.80;;
1054;SDS011;516;51.482;7.120;2023-04-25T12:09:37;9.30;;;8.60;;
1054;SDS011;516;51.482;7.120;2023-04-25T12:15:24;13.33;;;12.63;;
1054;SDS011;516;51.482;7.120;2023-04-25T12:21:12;10.13;;;9.67;;
1054;SDS011;516;51.482;7.120;2023-04-25T12:27:01;11.67;;;10.53;;
1054;SDS011;516;51.482;7.120;2023-04-25T12:32:19;11.27;;;10.47;;
1054;SDS011;516;51.482;7.120;2023-04-25T12:38:08;11.70;;;11.10;;
1054;SDS011;516;51.482;7.120;2023-04-25T12:43:55;11.10;;;10.60;;
1054;SDS011;516;51.482;7.120;2023-04-25T12:49:43;12.23;;;11.43;;
1054;SDS011;516;51.482;7.120;2023-04-25T12:55:31;16.70;;;12.80;;
1054;SDS011;516;51.482;7.120;2023-04-25T13:01:22;13.17;;;12.37;;
1054;SDS011;516;51.482;7.120;2023-04-25T13:07:11;13.47;;;12.70;;
1054;SDS011;516;51.482;7.120;2023-04-25T13:12:58;14.13;;;13.03;;
1054;SDS011;516;51.482;7.120;2023-04-25T13:18:49;12.10;;;11.50;;
1054;SDS011;516;51.482;7.120;2023-04-25T13:24:38;11.87;;;10.87;;
1054;SDS011;516;51.482;7.120;2023-04-25T13:40:16;10.50;;;9.63;;
1054;SDS011;516;51.482;7.120;2023-04-25T13:46:03;10.80;;;10.27;;
1054;SDS011;516;51.482;7.120;2023-04-25T13:51:52;10.90;;;10.40;;
1054;SDS011;516;51.482;7.120;2023-04-25T13:57:39;11.27;;;10.47;;
1054;SDS011;516;51.482;7.120;2023-04-25T14:03:27;11.30;;;10.70;;
1054;SDS011;516;51.482;7.120;2023-04-25T14:09:15;11.10;;;10.50;;
1054;SDS011;516;51.482;7.120;2023-04-25T14:15:02;11.90;;;11.40;;
1054;SDS011;516;51.482;7.120;2023-04-25T14:20:51;13.40;;;12.17;;
1054;SDS011;516;51.482;7.120;2023-04-25T14:26:39;14.50;;;13.70;;
1054;SDS011;516;51.482;7.120;2023-04-25T14:32:21;10.70;;;10.20;;
1054;SDS011;516;51.482;7.120;2023-04-25T14:38:09;11.33;;;10.83;;
1054;SDS011;516;51.482;7.120;2023-04-25T14:43:57;11.13;;;10.63;;
1054;SDS011;516;51.482;7.120;2023-04-25T14:49:45;12.00;;;11.37;;
1054;SDS011;516;51.482;7.120;2023-04-25T14:55:38;12.07;;;11.47;;
1054;SDS011;516;51.482;7.120;2023-04-25T15:01:27;12.10;;;11.57;;
1054;SDS011;516;51.482;7.120;2023-04-25T15:07:15;11.80;;;10.90;;
1054;SDS011;516;51.482;7.120;2023-04-25T15:13:03;10.90;;;10.40;;
1054;SDS011;516;51.482;7.120;2023-04-25T15:18:51;12.50;;;11.80;;
1054;SDS011;516;51.482;7.120;2023-04-25T15:24:20;10.83;;;10.33;;
1054;SDS011;516;51.482;7.120;2023-04-25T15:40:31;10.33;;;9.63;;
1054;SDS011;516;51.482;7.120;2023-04-25T15:46:19;12.20;;;11.37;;
1054;SDS011;516;51.482;7.120;2023-04-25T15:52:07;11.17;;;10.57;;
1054;SDS011;516;51.482;7.120;2023-04-25T15:57:54;12.03;;;11.07;;
1054;SDS011;516;51.482;7.120;2023-04-25T16:03:41;11.10;;;10.60;;
1054;SDS011;516;51.482;7.120;2023-04-25T16:09:28;9.60;;;9.10;;
1054;SDS011;516;51.482;7.120;2023-04-25T16:15:17;12.50;;;11.57;;
1054;SDS011;516;51.482;7.120;2023-04-25T16:21:05;11.13;;;10.30;;
1054;SDS011;516;51.482;7.120;2023-04-25T16:26:52;12.90;;;11.90;;
1054;SDS011;516;51.482;7.120;2023-04-25T16:32:40;11.13;;;10.47;;
1054;SDS011;516;51.482;7.120;2023-04-25T16:38:28;11.47;;;10.97;;
1054;SDS011;516;51.482;7.120;2023-04-25T16:44:22;11.37;;;10.23;;
1054;SDS011;516;51.482;7.120;2023-04-25T16:50:14;11.27;;;10.57;;
1054;SDS011;516;51.482;7.120;2023-04-25T16:56:02;12.23;;;11.33;;
1054;SDS011;516;51.482;7.120;2023-04-25T17:01:50;13.67;;;12.57;;
1054;SDS011;516;51.482;7.120;2023-04-25T17:07:38;11.63;;;10.93;;
1054;SDS011;516;51.482;7.120;2023-04-25T17:13:26;14.93;;;13.83;;
1054;SDS011;516;51.482;7.120;2023-04-25T17:19:14;12.13;;;11.40;;
1054;SDS011;516;51.482;7.120;2023-04-25T17:25:02;11.80;;;11.00;;
1054;SDS011;516;51.482;7.120;2023-04-25T17:30:51;11.60;;;11.00;;
1054;SDS011;516;51.482;7.120;2023-04-25T17:36:39;12.83;;;12.00;;
1054;SDS011;516;51.482;7.120;2023-04-25T17:42:27;12.27;;;11.33;;
1054;SDS011;516;51.482;7.120;2023-04-25T17:48:15;11.30;;;10.63;;
1054;SDS011;516;51.482;7.120;2023-04-25T17:54:02;11.40;;;10.70;;
1054;SDS011;516;51.482;7.120;2023-04-25T17:59:51;13.30;;;12.40;;
1054;SDS011;516;51.482;7.120;2023-04-25T18:05:40;12.10;;;11.20;;
1054;SDS011;516;51.482;7.120;2023-04-25T18:11:28;13.73;;;12.53;;
1054;SDS011;516;51.482;7.120;2023-04-25T18:17:17;12.33;;;11.60;;
1054;SDS011;516;51.482;7.120;2023-04-25T18:23:08;12.37;;;11.47;;
1054;SDS011;516;51.482;7.120;2023-04-25T18:28:56;14.60;;;13.40;;
1054;SDS011;516;51.482;7.120;2023-04-25T18:44:51;11.47;;;10.77;;
1054;SDS011;516;51.482;7.120;2023-04-25T18:50:40;11.20;;;10.47;;
1054;SDS011;516;51.482;7.120;2023-04-25T18:56:30;12.43;;;11.57;;
1054;SDS011;516;51.482;7.120;2023-04-25T19:02:19;12.90;;;11.60;;
1054;SDS011;516;51.482;7.120;2023-04-25T19:08:11;12.60;;;11.60;;
1054;SDS011;516;51.482;7.120;2023-04-25T19:13:59;11.67;;;10.57;;
1054;SDS011;516;51.482;7.120;2023-04-25T19:19:47;14.43;;;13.50;;
1054;SDS011;516;51.482;7.120;2023-04-25T19:25:36;20.57;;;17.90;;
1054;SDS011;516;51.482;7.120;2023-04-25T19:31:24;16.23;;;14.63;;
1054;SDS011;516;51.482;7.120;2023-04-25T19:37:04;12.20;;;11.40;;
1054;SDS011;516;51.482;7.120;2023-04-25T19:43:30;11.03;;;10.23;;
1054;SDS011;516;51.482;7.120;2023-04-25T19:49:18;12.70;;;11.57;;
1054;SDS011;516;51.482;7.120;2023-04-25T19:55:07;11.07;;;10.03;;
1054;SDS011;516;51.482;7.120;2023-04-25T20:00:56;10.07;;;9.37;;
1054;SDS011;516;51.482;7.120;2023-04-25T20:06:44;10.43;;;9.80;;
1054;SDS011;516;51.482;7.120;2023-04-25T20:12:32;10.60;;;9.93;;
1054;SDS011;516;51.482;7.120;2023-04-25T20:18:23;10.80;;;10.00;;
1054;SDS011;516;51.482;7.120;2023-04-25T20:24:11;10.80;;;10.10;;
1054;SDS011;516;51.482;7.120;2023-04-25T20:30:00;11.97;;;10.70;;
1054;SDS011;516;51.482;7.120;2023-04-25T20:39:16;13.33;;;10.40;;
1054;SDS011;516;51.482;7.120;2023-04-25T20:45:04;9.50;;;8.90;;
1054;SDS011;516;51.482;7.120;2023-04-25T20:50:53;9.80;;;8.97;;
1054;SDS011;516;51.482;7.120;2023-04-25T20:56:42;11.47;;;10.40;;
1054;SDS011;516;51.482;7.120;2023-04-25T21:02:30;10.10;;;9.40;;
1054;SDS011;516;51.482;7.120;2023-04-25T21:08:17;11.07;;;9.30;;
1054;SDS011;516;51.482;7.120;2023-04-25T21:14:05;10.67;;;9.67;;
1054;SDS011;516;51.482;7.120;2023-04-25T21:19:53;10.20;;;9.33;;
1054;SDS011;516;51.482;7.120;2023-04-25T21:25:41;9.63;;;8.93;;
1054;SDS011;516;51.482;7.120;2023-04-25T21:31:29;18.13;;;10.20;;
1054;SDS011;516;51.482;7.120;2023-04-25T21:37:11;9.37;;;8.47;;
1054;SDS011;516;51.482;7.120;2023-04-25T21:42:59;8.63;;;7.90;;
1054;SDS011;516;51.482;7.120;2023-04-25T21:48:48;9.23;;;8.40;;
1054;SDS011;516;51.482;7.120;2023-04-25T21:54:37;8.83;;;8.00;;
1054;SDS011;516;51.482;7.120;2023-04-25T22:00:25;8.40;;;7.80;;
1054;SDS011;516;51.482;7.120;2023-04-25T22:06:13;11.20;;;7.10;;
1054;SDS011;516;51.482;7.120;2023-04-25T22:12:01;8.30;;;7.50;;
1054;SDS011;516;51.482;7.120;2023-04-25T22:17:52;10.47;;;7.10;;
1054;SDS011;516;51.482;7.120;2023-04-25T22:23:41;11.20;;;8.50;;
1054;SDS011;516;51.482;7.120;2023-04-25T22:29:29;11.30;;;8.63;;
1054;SDS011;516;51.482;7.120;2023-04-25T22:45:07;9.57;;;7.10;;
1054;SDS011;516;51.482;7.120;2023-04-25T22:51:02;9.30;;;7.63;;
1054;SDS011;516;51.482;7.120;2023-04-25T22:56:51;9.87;;;6.57;;
1054;SDS011;516;51.482;7.120;2023-04-25T23:02:39;12.03;;;6.23;;
1054;SDS011;516;51.482;7.120;2023-04-25T23:08:27;10.93;;;7.50;;
1054;SDS011;516;51.482;7.120;2023-04-25T23:14:15;13.93;;;7.40;;
1054;SDS011;516;51.482;7.120;2023-04-25T23:20:04;8.57;;;7.73;;
1054;SDS011;516;51.482;7.120;2023-04-25T23:25:53;8.20;;;7.50;;
1054;SDS011;516;51.482;7.120;2023-04-25T23:31:43;8.60;;;7.83;;
1054;SDS011;516;51.482;7.120;2023-04-25T23:37:13;8.60;;;7.93;;
1054;SDS011;516;51.482;7.120;2023-04-25T23:43:01;8.60;;;7.70;;
1054;SDS011;516;51.482;7.120;2023-04-25T23:48:50;7.67;;;6.87;;
1054;SDS011;516;51.482;7.120;2023-04-25T23:54:38;14.93;;;7.57;;
